Time;durP1;ratioP1;P1;durP2;ratioP2;P2;SDS_P1;SDS_P2;PMS_P1;PMS_P2;Temp;Humidity;BMP_temperature;BMP_pressure;BME280_temperature;BME280_humidity;BME280_pressure;Samples;Min_cycle;Max_cycle;Signal;HPM_P1;HPM_P2
2021/01/28 00:00:30;;;;;;;51.42;20.75;;;;;;;9.77;69.86;101133.75;5012176;28;20461;-79
2021/01/28 00:02:57;;;;;;;50.63;19.67;;;;;;;9.70;69.55;101143.50;4998423;28;20030;-79
2021/01/28 00:05:25;;;;;;;43.40;17.73;;;;;;;9.63;69.58;101133.91;4999461;28;20470;-80
2021/01/28 00:07:52;;;;;;;44.75;17.40;;;;;;;9.54;69.24;101124.31;5004222;28;20034;-79
2021/01/28 00:10:19;;;;;;;44.38;18.17;;;;;;;9.47;69.26;101114.69;5008144;28;20022;-80
2021/01/28 00:12:46;;;;;;;34.35;16.65;;;;;;;9.39;69.42;101114.78;5004954;28;20033;-79
2021/01/28 00:15:17;;;;;;;53.17;19.15;;;;;;;9.36;69.38;101119.22;5001253;28;20395;-80
2021/01/28 00:17:44;;;;;;;43.10;17.83;;;;;;;9.32;69.99;101123.66;5005380;28;20382;-79
2021/01/28 00:20:16;;;;;;;56.60;20.45;;;;;;;9.36;69.49;101119.22;4997725;28;20504;-81
2021/01/28 00:22:44;;;;;;;69.28;23.77;;;;;;;9.33;69.78;101120.13;5002521;28;20137;-80
2021/01/28 00:25:15;;;;;;;53.30;19.65;;;;;;;9.37;69.85;101108.63;5005343;28;20030;-80
2021/01/28 00:27:42;;;;;;;42.05;19.70;;;;;;;9.35;70.43;101113.03;5009583;28;20049;-81
2021/01/28 00:30:12;;;;;;;65.85;19.58;;;;;;;9.36;70.36;101109.50;5004959;28;20038;-78
2021/01/28 00:32:38;;;;;;;47.30;17.10;;;;;;;9.35;69.87;101114.81;5002099;28;20076;-79
2021/01/28 00:35:08;;;;;;;54.20;18.90;;;;;;;9.35;69.81;101113.03;5010078;28;20026;-79
2021/01/28 00:37:35;;;;;;;46.47;19.00;;;;;;;9.28;70.42;101111.34;4999184;28;20042;-79
2021/01/28 00:40:03;;;;;;;51.42;19.80;;;;;;;9.27;70.53;101101.69;5003329;28;20022;-79
2021/01/28 00:42:29;;;;;;;39.72;16.58;;;;;;;9.27;70.37;101083.19;5005552;28;20057;-79
2021/01/28 00:44:57;;;;;;;47.17;17.13;;;;;;;9.22;70.33;101072.66;5009581;28;20030;-79
2021/01/28 00:47:24;;;;;;;56.28;20.58;;;;;;;9.21;70.75;101070.88;5003381;28;20022;-78
2021/01/28 00:49:50;;;;;;;43.22;17.30;;;;;;;9.23;70.48;101068.22;5012828;28;20038;-78
2021/01/28 00:52:17;;;;;;;50.35;19.67;;;;;;;9.22;70.26;101056.78;4997876;28;20504;-78
2021/01/28 00:54:43;;;;;;;59.85;17.25;;;;;;;9.22;70.56;101046.22;5003294;28;20033;-80
2021/01/28 00:57:10;;;;;;;72.20;20.73;;;;;;;9.22;70.33;101045.31;5007055;28;20030;-80
2021/01/28 00:59:36;;;;;;;64.35;21.38;;;;;;;9.19;70.64;101053.28;5009860;28;20068;-78
2021/01/28 01:02:03;;;;;;;85.78;22.27;;;;;;;9.20;70.48;101039.19;5001042;28;20033;-81
2021/01/28 01:04:29;;;;;;;243.93;31.75;;;;;;;9.20;70.71;101029.47;5003923;28;20042;-80
2021/01/28 01:06:57;;;;;;;112.95;22.40;;;;;;;9.20;70.02;101028.63;5008893;28;20160;-80
2021/01/28 01:09:26;;;;;;;125.38;24.70;;;;;;;9.20;70.03;101028.63;5011075;28;20057;-79
2021/01/28 01:11:55;;;;;;;121.47;22.42;;;;;;;9.16;70.21;101026.88;5007967;28;20076;-78
2021/01/28 01:14:22;;;;;;;76.45;18.92;;;;;;;9.15;70.19;101025.16;5004301;28;20101;-78
2021/01/28 01:16:49;;;;;;;93.32;22.13;;;;;;;9.13;70.12;101017.22;5003769;28;20132;-80
2021/01/28 01:19:16;;;;;;;102.47;18.83;;;;;;;9.12;70.22;101017.25;5003431;28;20025;-79
2021/01/28 01:21:42;;;;;;;114.68;22.58;;;;;;;9.06;70.09;101036.69;5010568;28;20034;-79
2021/01/28 01:24:09;;;;;;;62.78;19.25;;;;;;;9.04;70.02;101023.47;5000898;28;20060;-79
2021/01/28 01:26:36;;;;;;;58.80;19.30;;;;;;;9.02;70.75;101008.53;5005670;28;20421;-79
2021/01/28 01:29:02;;;;;;;72.00;21.58;;;;;;;9.02;70.02;101009.41;5010014;28;20038;-79
2021/01/28 01:31:28;;;;;;;89.38;22.73;;;;;;;8.98;70.35;100997.13;5008308;28;20461;-77
2021/01/28 01:33:55;;;;;;;93.30;21.02;;;;;;;8.99;70.83;101000.66;4999952;28;20121;-78
2021/01/28 01:36:21;;;;;;;86.32;21.48;;;;;;;8.95;70.88;100990.97;5004274;28;20022;-79
2021/01/28 01:38:48;;;;;;;97.20;20.95;;;;;;;8.94;70.69;100978.69;5007586;28;20026;-78
2021/01/28 01:41:14;;;;;;;119.78;22.92;;;;;;;8.89;70.32;100976.09;5005814;28;20076;-78
2021/01/28 01:43:41;;;;;;;96.47;21.27;;;;;;;8.92;70.79;100980.47;5010790;28;20084;-78
2021/01/28 01:46:11;;;;;;;122.53;22.48;;;;;;;8.94;70.50;100981.34;5002031;28;20076;-79
2021/01/28 01:48:49;;;;;;;95.32;22.70;;;;;;;8.94;70.63;100974.25;4997862;28;20069;-77
2021/01/28 01:54:09;;;;;;;84.35;22.25;;;;;;;8.96;70.74;100967.22;5103037;27;20354;-79
2021/01/28 01:56:40;;;;;;;93.70;20.02;;;;;;;8.93;70.01;100956.66;5079606;28;20032;-79
2021/01/28 01:59:19;;;;;;;103.85;21.13;;;;;;;8.98;70.55;100965.41;5077056;28;20053;-78
2021/01/28 02:01:50;;;;;;;130.30;24.58;;;;;;;8.97;70.17;100950.47;5083678;28;20035;-79
2021/01/28 02:04:20;;;;;;;84.25;20.08;;;;;;;8.98;70.50;100940.75;5083552;28;20085;-78
2021/01/28 02:06:52;;;;;;;60.90;19.48;;;;;;;8.98;70.71;100933.69;5079711;28;20034;-78
2021/01/28 02:09:18;;;;;;;69.95;18.58;;;;;;;8.94;70.28;100921.41;5074251;28;20056;-79
2021/01/28 02:11:46;;;;;;;84.30;19.55;;;;;;;8.94;70.75;100904.69;5076033;28;20037;-78
2021/01/28 02:14:15;;;;;;;112.90;20.48;;;;;;;8.92;70.22;100891.47;5081201;28;20469;-78
2021/01/28 02:16:57;;;;;;;71.72;19.40;;;;;;;8.96;70.53;100882.63;5086594;28;20452;-79
2021/01/28 02:22:44;;;;;;;84.57;18.08;;;;;;;8.97;70.14;100871.19;5083340;27;20431;-81
2021/01/28 02:27:52;;;;;;;146.75;26.05;;;;;;;8.96;70.06;100885.28;5100370;27;20406;-79
2021/01/28 02:30:23;;;;;;;110.65;21.30;;;;;;;8.97;70.67;100892.31;5099739;28;20039;-79
2021/01/28 02:32:51;;;;;;;86.97;19.08;;;;;;;9.00;70.53;100892.28;5094523;28;20038;-78
2021/01/28 02:35:22;;;;;;;156.13;24.70;;;;;;;8.99;70.56;100887.88;5099997;28;20447;-78
2021/01/28 02:37:49;;;;;;;178.73;28.50;;;;;;;8.99;70.13;100882.59;5096781;28;20024;-79
2021/01/28 02:40:19;;;;;;;138.65;23.77;;;;;;;9.04;70.20;100882.53;5100829;28;20019;-79
2021/01/28 02:42:45;;;;;;;99.60;20.23;;;;;;;9.03;70.48;100871.09;5100067;28;20039;-79
2021/01/28 02:45:19;;;;;;;117.88;22.98;;;;;;;9.08;70.33;100873.66;5099933;28;20024;-79
2021/01/28 02:47:58;;;;;;;64.47;18.33;;;;;;;9.12;70.48;100870.09;5099156;28;20039;-78
2021/01/28 02:50:25;;;;;;;64.32;18.95;;;;;;;9.06;70.54;100873.69;5096841;28;20416;-78
2021/01/28 02:52:54;;;;;;;90.60;20.50;;;;;;;9.07;70.26;100872.81;5106597;28;20099;-78
2021/01/28 02:55:23;;;;;;;95.93;19.63;;;;;;;9.06;70.74;100867.53;5095456;28;20533;-80
2021/01/28 02:57:50;;;;;;;115.82;21.85;;;;;;;9.09;70.26;100866.63;5099296;28;20036;-79
2021/01/28 03:00:20;;;;;;;133.68;24.02;;;;;;;9.13;70.11;100863.03;5102535;27;20019;-79
2021/01/28 03:02:49;;;;;;;102.60;19.10;;;;;;;9.12;70.28;100862.19;5097510;28;20360;-79
2021/01/28 03:05:16;;;;;;;70.75;16.08;;;;;;;9.10;70.63;100863.06;5097154;28;20020;-79
2021/01/28 03:07:42;;;;;;;68.80;18.92;;;;;;;9.10;70.05;100857.78;5102064;28;20089;-79
2021/01/28 03:10:09;;;;;;;62.80;18.20;;;;;;;9.08;70.83;100847.22;5106692;28;20502;-79
2021/01/28 03:12:36;;;;;;;93.68;20.95;;;;;;;9.07;70.45;100835.78;5104586;28;20062;-79
2021/01/28 03:15:06;;;;;;;61.38;17.85;;;;;;;9.13;70.59;100844.53;5095760;28;20359;-79
2021/01/28 03:17:33;;;;;;;81.65;21.40;;;;;;;9.14;70.47;100841.00;5106646;28;20031;-80
2021/01/28 03:19:59;;;;;;;104.70;22.13;;;;;;;9.14;70.02;100846.28;5100882;28;20028;-82
2021/01/28 03:22:26;;;;;;;78.93;18.70;;;;;;;9.16;70.62;100841.81;5097145;27;20060;-81
2021/01/28 03:24:53;;;;;;;82.80;20.20;;;;;;;9.15;70.70;100834.81;5095134;28;20024;-81
2021/01/28 03:27:19;;;;;;;59.63;18.80;;;;;;;9.15;70.37;100825.09;5099052;28;20035;-81
2021/01/28 03:29:46;;;;;;;62.53;18.00;;;;;;;9.15;70.41;100819.81;5103096;28;20034;-82
2021/01/28 03:32:12;;;;;;;52.22;17.88;;;;;;;9.16;70.42;100810.09;5105042;28;20198;-81
2021/01/28 03:34:38;;;;;;;63.90;19.75;;;;;;;9.16;70.20;100805.72;5104392;28;20100;-81
2021/01/28 03:37:05;;;;;;;58.47;18.20;;;;;;;9.18;69.98;100808.31;5102601;28;20387;-80
2021/01/28 03:39:31;;;;;;;65.55;19.25;;;;;;;9.18;70.37;100803.03;5084577;28;20107;-81
2021/01/28 03:41:58;;;;;;;80.20;18.38;;;;;;;9.18;70.23;100805.69;5086637;28;20029;-78
2021/01/28 03:44:24;;;;;;;71.10;20.35;;;;;;;9.18;70.19;100797.75;5086303;28;20028;-78
2021/01/28 03:46:51;;;;;;;76.65;19.67;;;;;;;9.16;69.72;100794.25;5088739;28;20498;-79
2021/01/28 03:49:17;;;;;;;63.78;19.17;;;;;;;9.13;69.80;100784.59;5057887;23;20041;-80
2021/01/28 03:51:43;;;;;;;87.68;20.50;;;;;;;9.13;70.44;100783.72;5026883;28;20061;-80
2021/01/28 03:54:10;;;;;;;73.85;19.23;;;;;;;9.13;70.45;100767.88;5035272;28;20021;-80
2021/01/28 03:56:36;;;;;;;61.08;17.50;;;;;;;9.11;70.23;100764.38;5034485;28;20456;-81
2021/01/28 03:59:03;;;;;;;67.05;19.13;;;;;;;9.13;70.39;100757.31;5045901;28;20040;-81
2021/01/28 04:01:29;;;;;;;87.45;19.48;;;;;;;9.12;70.33;100755.56;5046288;28;20121;-81
2021/01/28 04:03:55;;;;;;;70.28;18.65;;;;;;;9.10;69.93;100749.41;5048697;28;20438;-81
2021/01/28 04:06:22;;;;;;;56.55;18.33;;;;;;;9.09;70.45;100735.31;5051378;28;20021;-81
2021/01/28 04:08:48;;;;;;;81.15;18.00;;;;;;;9.08;69.89;100730.94;5052246;28;20043;-80
2021/01/28 04:11:14;;;;;;;59.30;18.23;;;;;;;9.06;70.18;100730.97;5042932;28;20036;-81
2021/01/28 04:13:41;;;;;;;103.30;20.05;;;;;;;9.07;69.78;100727.44;5040706;28;20025;-81
2021/01/28 04:16:08;;;;;;;66.05;19.23;;;;;;;9.05;70.51;100716.00;5044016;28;20021;-81
2021/01/28 04:18:34;;;;;;;64.18;20.45;;;;;;;9.07;70.48;100708.94;5039646;28;20460;-81
2021/01/28 04:21:14;;;;;;;68.28;19.85;;;;;;;9.15;70.28;100710.59;5036439;28;20484;-81
2021/01/28 04:23:41;;;;;;;50.03;18.17;;;;;;;9.12;69.88;100715.91;5042176;28;20087;-80
2021/01/28 04:26:14;;;;;;;57.78;18.05;;;;;;;9.13;69.93;100699.16;5039760;28;20092;-82
2021/01/28 04:28:40;;;;;;;60.28;18.58;;;;;;;9.11;70.49;100685.06;5038608;28;20061;-81
2021/01/28 04:31:07;;;;;;;70.18;20.05;;;;;;;9.07;69.93;100678.97;5039094;28;20029;-81
2021/01/28 04:33:33;;;;;;;83.13;21.13;;;;;;;9.07;70.47;100677.22;5042897;28;20060;-81
2021/01/28 04:36:01;;;;;;;57.42;18.17;;;;;;;9.09;70.05;100663.97;5053514;28;20036;-81
2021/01/28 04:38:27;;;;;;;84.80;21.17;;;;;;;9.10;69.94;100657.78;5049927;28;20036;-81
2021/01/28 04:41:14;;;;;;;83.80;22.00;;;;;;;9.11;69.94;100638.41;5048662;28;20029;-81
2021/01/28 04:43:41;;;;;;;79.97;19.73;;;;;;;9.11;70.39;100642.78;5052761;28;20045;-81
2021/01/28 04:46:15;;;;;;;106.75;22.52;;;;;;;9.14;69.90;100635.69;5052028;28;20037;-80
2021/01/28 04:48:41;;;;;;;87.72;21.27;;;;;;;9.09;70.59;100628.75;5048150;28;20037;-80
2021/01/28 04:51:09;;;;;;;101.57;20.48;;;;;;;9.10;70.54;100619.91;5046547;28;20037;-80
2021/01/28 04:53:45;;;;;;;75.93;18.05;;;;;;;9.12;70.32;100607.53;5052291;28;20399;-80
2021/01/28 04:56:15;;;;;;;105.45;18.00;;;;;;;9.09;70.44;100597.03;5049858;28;20037;-80
2021/01/28 04:58:41;;;;;;;107.63;21.48;;;;;;;9.05;70.42;100599.72;5044337;28;20048;-81
2021/01/28 05:01:07;;;;;;;82.32;20.17;;;;;;;9.01;70.79;100599.78;5041041;28;20026;-80
2021/01/28 05:03:42;;;;;;;98.18;22.25;;;;;;;9.08;70.42;100585.56;5050694;28;20476;-81
2021/01/28 05:06:10;;;;;;;70.45;18.13;;;;;;;9.03;70.38;100580.41;5048379;28;20037;-81
2021/01/28 05:08:36;;;;;;;58.47;17.85;;;;;;;9.05;70.43;100569.78;5050459;28;20384;-80
2021/01/28 05:11:16;;;;;;;75.15;19.95;;;;;;;9.02;70.67;100560.16;5052953;28;20040;-80
2021/01/28 05:13:43;;;;;;;59.90;20.58;;;;;;;9.03;70.47;100561.88;5051218;28;20029;-80
2021/01/28 05:16:46;;;;;;;61.20;17.35;;;;;;;9.11;70.41;100552.94;5048953;28;20022;-80
2021/01/28 05:19:28;;;;;;;;;;;;;;;9.18;70.51;100538.69;5057262;22;20111;-80
2021/01/28 05:22:10;;;;;;;64.28;20.70;;;;;;;9.05;70.42;100528.34;5031934;28;20374;-80
2021/01/28 05:24:43;;;;;;;55.38;20.40;;;;;;;9.01;70.83;100526.69;5032813;28;20017;-80
2021/01/28 05:27:16;;;;;;;53.05;19.40;;;;;;;9.00;70.62;100519.66;5033008;28;20041;-78
2021/01/28 05:29:45;;;;;;;71.88;22.83;;;;;;;9.00;70.19;100514.38;5032986;28;20021;-81
2021/01/28 05:32:33;;;;;;;95.18;24.00;;;;;;;9.03;70.24;100503.75;5032299;28;20036;-82
2021/01/28 05:40:55;;;;;;;78.38;22.73;;;;;;;9.03;70.42;100487.91;5075504;27;20407;-81
2021/01/28 05:43:29;;;;;;;59.42;21.30;;;;;;;9.01;70.89;100484.41;5058264;28;20039;-80
2021/01/28 05:46:12;;;;;;;157.38;27.42;;;;;;;9.09;70.27;100471.03;5063012;28;20044;-80
2021/01/28 05:48:38;;;;;;;137.63;28.98;;;;;;;8.99;70.52;100462.41;5064474;28;20036;-82
2021/01/28 05:51:11;;;;;;;64.55;20.40;;;;;;;9.02;71.05;100464.13;5041351;28;20232;-82
2021/01/28 05:53:38;;;;;;;63.58;20.98;;;;;;;8.99;70.42;100457.13;5049257;28;20115;-83
2021/01/28 05:56:13;;;;;;;66.07;22.52;;;;;;;9.04;71.18;100449.97;5055707;28;20025;-81
2021/01/28 05:58:49;;;;;;;64.57;19.95;;;;;;;9.00;70.73;100448.31;5041469;28;20074;-82
2021/01/28 06:04:18;;;;;;;70.55;22.27;;;;;;;9.04;71.30;100449.13;5098260;27;20359;-82
2021/01/28 06:09:55;;;;;;;59.58;22.65;;;;;;;9.08;70.89;100432.28;5105125;27;20357;-82
2021/01/28 06:18:52;;;;;;;61.97;22.63;;;;;;;9.14;71.06;100424.22;5068099;28;20384;-81
2021/01/28 06:24:25;;;;;;;63.40;22.52;;;;;;;9.07;70.78;100412.94;5071421;27;21229;-80
2021/01/28 06:30:25;;;;;;;57.75;21.90;;;;;;;9.12;71.13;100404.03;5101410;27;20370;-80
2021/01/28 06:33:31;;;;;;;50.88;19.65;;;;;;;9.09;71.42;100404.97;5096686;28;20036;-81
2021/01/28 06:39:00;;;;;;;57.30;21.95;;;;;;;9.05;70.83;100379.50;5064543;28;20923;-81
2021/01/28 06:41:33;;;;;;;71.43;21.38;;;;;;;9.05;71.40;100374.22;5055670;28;20403;-80
2021/01/28 06:44:09;;;;;;;56.78;18.67;;;;;;;9.05;71.15;100353.09;5052215;28;20060;-81
2021/01/28 06:46:45;;;;;;;49.38;18.67;;;;;;;9.02;71.39;100353.13;5056235;28;20112;-81
2021/01/28 06:49:23;;;;;;;48.10;18.00;;;;;;;9.02;70.99;100332.88;5054111;28;20079;-80
2021/01/28 06:52:20;;;;;;;49.95;19.50;;;;;;;9.04;71.27;100320.47;5054855;28;20033;-81
2021/01/28 06:54:56;;;;;;;41.58;17.58;;;;;;;8.97;71.67;100312.72;5061992;28;20059;-77
2021/01/28 06:57:40;;;;;;;40.55;15.05;;;;;;;9.00;71.09;100304.75;5055190;28;20469;-80
2021/01/28 07:05:57;;;;;;;45.08;17.58;;;;;;;8.90;71.52;100285.59;5062452;27;20446;-80
2021/01/28 07:11:21;;;;;;;35.40;15.55;;;;;;;8.88;71.67;100282.09;5075592;28;20972;-79
2021/01/28 07:13:47;;;;;;;40.67;15.52;;;;;;;8.86;71.74;100278.59;5069931;28;20057;-79
2021/01/28 07:19:09;;;;;;;33.28;14.68;;;;;;;8.87;72.11;100269.78;5067551;27;20434;-80
2021/01/28 07:21:41;;;;;;;33.28;14.25;;;;;;;8.90;71.62;100267.09;5051306;28;20087;-80
2021/01/28 07:24:27;;;;;;;34.75;14.20;;;;;;;8.90;72.20;100264.44;5057214;28;20064;-81
2021/01/28 07:26:58;;;;;;;34.33;14.57;;;;;;;8.87;71.92;100259.22;5054515;28;20029;-80
2021/01/28 07:35:42;;;;;;;31.13;12.85;;;;;;;8.96;71.85;100263.44;5069673;28;20369;-81
2021/01/28 07:44:33;;;;;;;26.10;12.13;;;;;;;8.98;71.57;100249.28;5073277;28;20406;-82
2021/01/28 07:47:00;;;;;;;32.80;12.10;;;;;;;8.88;71.86;100248.63;5067654;28;20599;-80
2021/01/28 07:49:29;;;;;;;31.08;11.52;;;;;;;8.90;71.58;100243.31;5055518;28;20485;-80
2021/01/28 07:54:58;;;;;;;34.58;12.35;;;;;;;8.89;71.32;100233.66;5094022;27;20356;-81
2021/01/28 07:57:45;;;;;;;28.13;10.85;;;;;;;8.98;71.91;100227.28;5086847;28;20032;-81
2021/01/28 08:00:16;;;;;;;21.30;9.43;;;;;;;8.90;71.47;100230.09;5062685;28;20507;-79
2021/01/28 08:02:43;;;;;;;24.92;10.25;;;;;;;8.91;71.63;100231.84;5065836;28;20033;-81
2021/01/28 08:05:20;;;;;;;31.52;10.48;;;;;;;8.97;71.59;100223.78;5069484;28;20025;-79
2021/01/28 08:08:04;;;;;;;21.10;9.10;;;;;;;8.93;71.55;100231.81;5058992;28;20029;-80
2021/01/28 08:13:26;;;;;;;20.73;8.45;;;;;;;8.96;71.51;100222.03;5076108;28;20431;-80
2021/01/28 08:21:28;;;;;;;21.20;8.10;;;;;;;8.96;71.90;100211.47;5136650;27;20378;-89
2021/01/28 08:24:11;;;;;;;16.42;7.30;;;;;;;8.99;72.02;100207.88;5136933;27;20027;-87
2021/01/28 08:26:40;;;;;;;18.40;7.78;;;;;;;8.93;71.79;100208.03;5135871;27;20028;-89
2021/01/28 08:29:22;;;;;;;24.13;9.18;;;;;;;9.02;71.29;100211.31;5119479;27;20510;-89
2021/01/28 08:31:54;;;;;;;84.07;41.85;;;;;;;9.03;71.34;100212.19;5113259;28;20111;-86
2021/01/28 08:34:25;;;;;;;43.83;19.10;;;;;;;9.02;71.65;100200.75;5113765;28;20360;-89
2021/01/28 08:36:56;;;;;;;33.55;14.75;;;;;;;9.02;71.77;100198.13;5120695;28;20024;-88
2021/01/28 08:45:03;;;;;;;24.42;9.90;;;;;;;8.97;71.79;100181.50;5103619;27;20359;-87
2021/01/28 08:47:29;;;;;;;21.45;8.38;;;;;;;8.98;71.36;100174.44;5090769;28;20494;-87
2021/01/28 08:50:04;;;;;;;17.90;7.97;;;;;;;8.98;71.31;100177.94;5097009;28;20082;-88
2021/01/28 08:52:31;;;;;;;19.23;8.10;;;;;;;9.00;71.50;100160.28;5088113;28;20024;-87
2021/01/28 08:54:57;;;;;;;19.30;9.07;;;;;;;9.00;71.94;100168.19;5097464;28;20024;-86
2021/01/28 08:57:26;;;;;;;16.60;7.72;;;;;;;9.02;71.82;100161.13;5088869;28;20471;-87
2021/01/28 08:59:59;;;;;;;18.83;7.03;;;;;;;8.97;71.71;100157.72;5088538;28;20024;-85
2021/01/28 09:02:34;;;;;;;16.88;7.18;;;;;;;9.01;71.34;100166.41;5092156;28;20550;-85
2021/01/28 09:07:49;;;;;;;16.30;7.07;;;;;;;9.03;71.25;100165.50;5064641;28;20476;-86
2021/01/28 09:10:26;;;;;;;12.23;6.95;;;;;;;9.05;71.73;100160.16;5046651;28;20025;-87
2021/01/28 09:12:52;;;;;;;20.38;8.27;;;;;;;8.95;71.93;100153.34;5043603;28;20112;-87
2021/01/28 09:15:24;;;;;;;19.70;7.30;;;;;;;8.98;71.35;100151.50;5043484;28;20083;-88
2021/01/28 09:17:52;;;;;;;20.88;9.55;;;;;;;8.93;71.82;100148.13;5048604;28;20112;-88
2021/01/28 09:20:32;;;;;;;18.73;8.32;;;;;;;8.93;71.41;100139.34;5042125;28;20442;-89
2021/01/28 09:26:22;;;;;;;10.68;5.57;;;;;;;8.93;71.67;100132.25;5074815;27;20418;-92
2021/01/28 09:28:48;;;;;;;16.27;6.35;;;;;;;8.88;72.01;100134.16;5056645;28;20035;-88
2021/01/28 09:31:22;;;;;;;12.93;5.75;;;;;;;8.89;72.13;100128.81;5047656;28;20025;-87
2021/01/28 09:33:48;;;;;;;14.73;5.18;;;;;;;8.86;71.54;100125.38;5048920;28;20056;-87
2021/01/28 09:39:22;;;;;;;17.80;6.32;;;;;;;8.89;71.93;100120.03;5074907;27;20485;-87
2021/01/28 09:41:51;;;;;;;11.68;5.25;;;;;;;8.92;71.55;100127.88;5054744;28;20107;-86
2021/01/28 09:44:36;;;;;;;11.80;4.47;;;;;;;8.99;71.49;100125.97;5056995;28;20021;-86
2021/01/28 09:49:53;;;;;;;9.90;5.10;;;;;;;8.89;71.89;100122.69;5045710;28;20853;-87
2021/01/28 09:52:30;;;;;;;11.18;4.20;;;;;;;8.96;71.72;100121.63;5042147;28;20029;-86
2021/01/28 09:55:00;;;;;;;9.52;4.55;;;;;;;8.94;71.54;100128.72;5041268;28;20018;-87
2021/01/28 09:57:27;;;;;;;10.45;4.65;;;;;;;8.91;72.18;100120.88;5026284;28;20017;-85
2021/01/28 09:59:56;;;;;;;11.98;5.15;;;;;;;8.92;71.77;100125.25;5024124;28;20030;-86
2021/01/28 10:02:45;;;;;;;9.60;4.38;;;;;;;9.04;71.41;100130.22;5030840;28;20029;-86
2021/01/28 10:05:15;;;;;;;10.30;4.55;;;;;;;8.95;72.06;100124.28;5027120;28;20053;-87
2021/01/28 10:07:41;;;;;;;8.43;4.70;;;;;;;8.97;71.54;100112.81;5025863;28;20033;-92
2021/01/28 10:10:09;;;;;;;11.20;4.22;;;;;;;8.99;71.86;100118.03;5033558;28;20057;-86
2021/01/28 10:12:36;;;;;;;8.68;3.92;;;;;;;8.97;71.45;100126.03;5039539;28;20031;-86
2021/01/28 10:15:03;;;;;;;6.47;4.00;;;;;;;9.01;71.44;100132.97;5043397;28;20029;-86
2021/01/28 10:17:29;;;;;;;18.65;10.13;;;;;;;9.00;72.00;100144.44;5030078;28;20546;-85
2021/01/28 10:19:55;;;;;;;11.07;6.20;;;;;;;9.01;71.66;100134.72;5030204;28;20072;-85
2021/01/28 10:22:23;;;;;;;10.00;5.13;;;;;;;8.96;71.77;100132.22;5031671;28;20436;-86
2021/01/28 10:24:49;;;;;;;9.35;4.22;;;;;;;8.98;71.47;100130.38;5018540;28;20120;-87
2021/01/28 10:27:16;;;;;;;6.50;4.03;;;;;;;8.94;71.72;100119.94;5033998;28;20030;-86
2021/01/28 10:29:43;;;;;;;5.38;3.30;;;;;;;8.97;71.59;100120.75;5009323;28;20084;-85
2021/01/28 10:32:13;;;;;;;10.15;4.60;;;;;;;9.01;71.37;100117.09;5027668;28;20029;-86
2021/01/28 10:34:39;;;;;;;7.97;3.88;;;;;;;9.00;71.71;100112.72;5036967;28;20033;-85
2021/01/28 10:37:07;;;;;;;9.60;4.05;;;;;;;9.06;71.94;100122.28;5029271;28;20029;-86
2021/01/28 10:39:33;;;;;;;6.82;4.30;;;;;;;9.10;71.54;100123.03;5025610;28;20033;-87
2021/01/28 10:41:59;;;;;;;7.25;3.72;;;;;;;9.12;71.41;100118.59;5023806;28;20487;-82
2021/01/28 10:44:26;;;;;;;5.53;3.38;;;;;;;9.14;71.62;100109.72;5026915;28;20130;-83
2021/01/28 10:46:52;;;;;;;10.52;4.68;;;;;;;9.15;71.37;100129.09;5037160;28;20033;-81
2021/01/28 10:49:19;;;;;;;8.55;3.90;;;;;;;9.15;71.84;100127.31;5029655;28;20041;-82
2021/01/28 10:51:48;;;;;;;8.00;4.22;;;;;;;9.20;71.45;100124.56;5033138;28;20026;-83
2021/01/28 10:54:16;;;;;;;6.20;3.85;;;;;;;9.11;71.97;100124.78;5030964;28;20068;-85
2021/01/28 10:56:43;;;;;;;8.25;4.32;;;;;;;9.06;72.06;100117.84;5026219;28;20494;-84
2021/01/28 10:59:09;;;;;;;7.78;4.88;;;;;;;9.01;71.64;100114.47;5025292;28;20040;-86
2021/01/28 11:01:35;;;;;;;6.55;3.97;;;;;;;9.01;71.38;100119.75;5015735;28;20033;-86
2021/01/28 11:04:02;;;;;;;7.82;4.60;;;;;;;9.02;71.57;100131.16;5014437;28;20030;-85
2021/01/28 11:06:31;;;;;;;6.70;4.38;;;;;;;9.00;71.62;100144.44;5011034;28;20054;-84
2021/01/28 11:08:57;;;;;;;7.47;5.03;;;;;;;9.07;71.45;100167.16;5015396;28;20038;-84
2021/01/28 11:11:24;;;;;;;7.65;4.78;;;;;;;9.07;71.50;100148.66;5014528;28;20083;-85
2021/01/28 11:13:52;;;;;;;7.82;5.18;;;;;;;8.97;71.73;100114.56;5019757;28;20139;-86
2021/01/28 11:16:23;;;;;;;9.95;4.97;;;;;;;9.02;72.04;100105.63;5018079;28;20032;-85
2021/01/28 11:18:52;;;;;;;7.20;4.55;;;;;;;9.00;72.58;100081.00;5034563;22;20416;-78
2021/01/28 11:21:20;;;;;;;6.82;4.60;;;;;;;8.99;72.06;100068.69;5032323;28;20034;-79
2021/01/28 11:23:46;;;;;;;7.22;4.45;;;;;;;9.06;72.75;100067.63;5031367;28;20116;-79
2021/01/28 11:26:12;;;;;;;7.65;5.25;;;;;;;9.18;72.48;100052.34;5031296;28;20030;-79
2021/01/28 11:28:39;;;;;;;6.10;4.10;;;;;;;9.21;71.78;100044.38;5032215;28;20029;-79
2021/01/28 11:31:05;;;;;;;6.45;4.15;;;;;;;9.23;72.27;100050.44;5032799;28;20033;-77
2021/01/28 11:33:33;;;;;;;5.95;3.97;;;;;;;9.31;71.98;100074.03;5024198;28;20489;-79
2021/01/28 11:36:00;;;;;;;9.07;4.53;;;;;;;9.36;71.37;100088.88;5030553;28;20549;-79
2021/01/28 11:38:26;;;;;;;6.03;3.60;;;;;;;9.34;71.65;100079.25;5029818;28;20087;-85
2021/01/28 11:40:53;;;;;;;6.78;3.28;;;;;;;9.37;71.16;100056.25;5032013;28;20498;-79
2021/01/28 11:43:20;;;;;;;4.63;3.20;;;;;;;9.30;71.75;100062.59;5032846;28;20554;-78
2021/01/28 11:45:46;;;;;;;5.38;3.80;;;;;;;9.28;71.77;100079.41;5032354;28;20084;-80
2021/01/28 11:48:12;;;;;;;4.03;3.08;;;;;;;9.28;71.76;100071.50;5031847;28;20132;-80
2021/01/28 11:50:38;;;;;;;4.85;3.17;;;;;;;9.22;71.88;100065.47;5031122;28;20069;-80
2021/01/28 11:53:05;;;;;;;4.03;3.05;;;;;;;9.24;71.70;100073.34;5032150;28;20053;-80
2021/01/28 11:55:31;;;;;;;6.28;4.00;;;;;;;9.22;71.59;100083.06;5032709;28;20057;-80
2021/01/28 11:57:58;;;;;;;4.50;3.55;;;;;;;9.21;71.10;100090.16;5031264;28;20413;-79
2021/01/28 12:00:27;;;;;;;5.93;3.95;;;;;;;9.21;71.11;100089.28;5032603;28;20109;-80
2021/01/28 12:02:56;;;;;;;6.18;4.53;;;;;;;9.23;71.48;100103.31;5032655;28;20025;-80
2021/01/28 12:05:25;;;;;;;5.57;4.28;;;;;;;9.25;71.49;100096.22;5033109;28;20361;-79
2021/01/28 12:07:52;;;;;;;6.90;4.68;;;;;;;9.24;71.05;100097.13;5032348;28;20021;-80
2021/01/28 12:10:22;;;;;;;6.65;4.38;;;;;;;9.30;71.08;100114.63;5030555;28;20099;-81
2021/01/28 12:12:49;;;;;;;7.38;5.25;;;;;;;9.31;71.47;100111.94;5029041;28;20496;-80
2021/01/28 12:15:18;;;;;;;6.43;4.55;;;;;;;9.32;71.47;100113.66;5027429;28;20037;-80
2021/01/28 12:17:44;;;;;;;7.15;4.72;;;;;;;9.28;71.45;100117.28;5030861;28;20041;-80
2021/01/28 12:20:11;;;;;;;7.50;5.15;;;;;;;9.29;71.36;100119.03;5030909;28;20048;-74
2021/01/28 12:22:38;;;;;;;7.28;4.50;;;;;;;9.28;71.18;100116.44;5031543;28;20041;-90
2021/01/28 12:25:06;;;;;;;7.80;5.05;;;;;;;9.31;71.52;100122.50;5031906;28;20582;-79
2021/01/28 12:27:33;;;;;;;5.90;4.68;;;;;;;9.34;70.99;100122.41;5032740;28;20629;-78
2021/01/28 12:30:02;;;;;;;7.53;5.57;;;;;;;9.29;70.98;100116.38;5028020;28;20069;-79
2021/01/28 12:32:30;;;;;;;8.52;6.32;;;;;;;9.27;71.71;100114.69;5030338;28;20125;-79
2021/01/28 12:34:56;;;;;;;9.30;6.97;;;;;;;9.27;71.76;100115.56;5028633;28;20487;-78
2021/01/28 12:37:22;;;;;;;10.48;6.88;;;;;;;9.31;71.44;100121.63;5032582;28;20048;-77
2021/01/28 12:39:49;;;;;;;9.57;6.90;;;;;;;9.33;71.75;100131.28;5031969;28;20037;-78
2021/01/28 12:42:17;;;;;;;9.77;6.95;;;;;;;9.39;71.52;100131.09;5032012;28;20432;-81
2021/01/28 12:44:43;;;;;;;10.55;7.93;;;;;;;9.45;71.22;100134.50;5031638;28;20056;-81
2021/01/28 12:47:09;;;;;;;10.15;7.90;;;;;;;9.44;71.08;100143.31;5030051;28;20030;-79
2021/01/28 12:49:35;;;;;;;9.57;7.47;;;;;;;9.46;71.11;100152.97;5030488;28;20243;-78
2021/01/28 12:52:02;;;;;;;11.00;8.40;;;;;;;9.49;71.54;100152.84;5032566;28;20057;-80
2021/01/28 12:54:28;;;;;;;9.38;7.85;;;;;;;9.55;71.28;100154.47;5033077;28;20440;-79
2021/01/28 12:56:54;;;;;;;11.57;8.02;;;;;;;9.53;71.44;100154.53;5029201;28;20049;-79
2021/01/28 12:59:20;;;;;;;10.32;7.60;;;;;;;9.53;71.42;100164.22;5022887;28;20108;-81
2021/01/28 13:01:46;;;;;;;17.58;8.10;;;;;;;9.54;71.08;100165.97;5032187;28;20037;-80